sensor_id;sensor_type;location;lat;lon;timestamp;P1;durP1;ratioP1;P2;durP2;ratioP2
6133;SDS011;3098;42.678;23.364;2022-08-21T00:00:07;24.83;;;11.13;;
6133;SDS011;3098;42.678;23.364;2022-08-21T00:02:36;18.20;;;9.88;;
6133;SDS011;3098;42.678;23.364;2022-08-21T00:05:04;21.40;;;11.18;;
6133;SDS011;3098;42.678;23.364;2022-08-21T00:07:31;20.98;;;11.90;;
6133;SDS011;3098;42.678;23.364;2022-08-21T00:09:58;24.67;;;14.95;;
6133;SDS011;3098;42.678;23.364;2022-08-21T00:12:26;26.95;;;15.02;;
6133;SDS011;3098;42.678;23.364;2022-08-21T00:14:54;21.48;;;12.48;;
6133;SDS011;3098;42.678;23.364;2022-08-21T00:17:22;27.55;;;12.20;;
6133;SDS011;3098;42.678;23.364;2022-08-21T00:19:49;24.00;;;13.23;;
6133;SDS011;3098;42.678;23.364;2022-08-21T00:22:16;26.30;;;13.00;;
6133;SDS011;3098;42.678;23.364;2022-08-21T00:24:43;28.05;;;11.80;;
6133;SDS011;3098;42.678;23.364;2022-08-21T00:27:10;22.88;;;11.93;;
6133;SDS011;3098;42.678;23.364;2022-08-21T00:29:37;23.70;;;12.73;;
6133;SDS011;3098;42.678;23.364;2022-08-21T00:32:05;28.85;;;13.20;;
6133;SDS011;3098;42.678;23.364;2022-08-21T00:34:33;34.80;;;14.73;;
6133;SDS011;3098;42.678;23.364;2022-08-21T00:37:00;29.90;;;14.13;;
6133;SDS011;3098;42.678;23.364;2022-08-21T00:39:27;30.48;;;13.55;;
6133;SDS011;3098;42.678;23.364;2022-08-21T00:41:54;26.02;;;13.63;;
6133;SDS011;3098;42.678;23.364;2022-08-21T00:44:21;24.17;;;12.88;;
6133;SDS011;3098;42.678;23.364;2022-08-21T00:46:48;25.63;;;12.95;;
6133;SDS011;3098;42.678;23.364;2022-08-21T00:49:16;20.23;;;11.85;;
6133;SDS011;3098;42.678;23.364;2022-08-21T00:51:44;25.52;;;11.60;;
6133;SDS011;3098;42.678;23.364;2022-08-21T00:54:14;22.35;;;10.93;;
6133;SDS011;3098;42.678;23.364;2022-08-21T00:56:42;21.02;;;11.35;;
6133;SDS011;3098;42.678;23.364;2022-08-21T00:59:10;22.05;;;10.65;;
6133;SDS011;3098;42.678;23.364;2022-08-21T01:01:37;25.63;;;13.65;;
6133;SDS011;3098;42.678;23.364;2022-08-21T01:04:04;29.83;;;15.73;;
6133;SDS011;3098;42.678;23.364;2022-08-21T01:06:33;28.77;;;13.15;;
6133;SDS011;3098;42.678;23.364;2022-08-21T01:09:00;21.08;;;11.40;;
6133;SDS011;3098;42.678;23.364;2022-08-21T01:11:27;24.42;;;12.05;;
6133;SDS011;3098;42.678;23.364;2022-08-21T01:13:54;27.73;;;13.07;;
6133;SDS011;3098;42.678;23.364;2022-08-21T01:16:21;31.10;;;13.68;;
6133;SDS011;3098;42.678;23.364;2022-08-21T01:18:49;27.73;;;12.85;;
6133;SDS011;3098;42.678;23.364;2022-08-21T01:21:19;31.63;;;14.98;;
6133;SDS011;3098;42.678;23.364;2022-08-21T01:23:49;37.58;;;16.48;;
6133;SDS011;3098;42.678;23.364;2022-08-21T01:26:20;34.35;;;16.95;;
6133;SDS011;3098;42.678;23.364;2022-08-21T01:28:52;32.22;;;15.65;;
6133;SDS011;3098;42.678;23.364;2022-08-21T01:31:24;34.55;;;15.88;;
6133;SDS011;3098;42.678;23.364;2022-08-21T01:33:54;26.83;;;13.98;;
6133;SDS011;3098;42.678;23.364;2022-08-21T01:36:23;33.88;;;16.50;;
6133;SDS011;3098;42.678;23.364;2022-08-21T01:38:50;28.08;;;13.77;;
6133;SDS011;3098;42.678;23.364;2022-08-21T01:41:19;33.33;;;16.10;;
6133;SDS011;3098;42.678;23.364;2022-08-21T01:43:46;28.70;;;15.68;;
6133;SDS011;3098;42.678;23.364;2022-08-21T01:46:13;34.17;;;16.00;;
6133;SDS011;3098;42.678;23.364;2022-08-21T01:48:40;29.10;;;13.52;;
6133;SDS011;3098;42.678;23.364;2022-08-21T01:51:07;33.05;;;14.98;;
6133;SDS011;3098;42.678;23.364;2022-08-21T01:53:36;35.85;;;15.73;;
6133;SDS011;3098;42.678;23.364;2022-08-21T01:56:04;30.40;;;14.65;;
6133;SDS011;3098;42.678;23.364;2022-08-21T01:58:32;31.17;;;14.55;;
6133;SDS011;3098;42.678;23.364;2022-08-21T02:00:59;31.55;;;14.90;;
6133;SDS011;3098;42.678;23.364;2022-08-21T02:03:27;30.50;;;14.85;;
6133;SDS011;3098;42.678;23.364;2022-08-21T02:05:55;34.03;;;16.00;;
6133;SDS011;3098;42.678;23.364;2022-08-21T02:08:22;28.05;;;15.93;;
6133;SDS011;3098;42.678;23.364;2022-08-21T02:10:51;38.78;;;16.55;;
6133;SDS011;3098;42.678;23.364;2022-08-21T02:13:18;32.30;;;15.63;;
6133;SDS011;3098;42.678;23.364;2022-08-21T02:15:45;42.72;;;20.27;;
6133;SDS011;3098;42.678;23.364;2022-08-21T02:18:12;43.50;;;19.38;;
6133;SDS011;3098;42.678;23.364;2022-08-21T02:20:41;48.45;;;21.25;;
6133;SDS011;3098;42.678;23.364;2022-08-21T02:23:11;53.83;;;22.20;;
6133;SDS011;3098;42.678;23.364;2022-08-21T02:25:39;55.05;;;23.17;;
6133;SDS011;3098;42.678;23.364;2022-08-21T02:28:08;50.03;;;22.35;;
6133;SDS011;3098;42.678;23.364;2022-08-21T02:30:37;44.20;;;18.88;;
6133;SDS011;3098;42.678;23.364;2022-08-21T02:33:06;53.72;;;21.80;;
6133;SDS011;3098;42.678;23.364;2022-08-21T02:35:35;60.55;;;24.02;;
6133;SDS011;3098;42.678;23.364;2022-08-21T02:38:04;51.65;;;22.75;;
6133;SDS011;3098;42.678;23.364;2022-08-21T02:40:34;47.45;;;21.15;;
6133;SDS011;3098;42.678;23.364;2022-08-21T02:43:03;44.08;;;21.88;;
6133;SDS011;3098;42.678;23.364;2022-08-21T02:45:33;45.05;;;21.20;;
6133;SDS011;3098;42.678;23.364;2022-08-21T02:48:03;37.30;;;18.60;;
6133;SDS011;3098;42.678;23.364;2022-08-21T02:50:34;37.70;;;17.40;;
6133;SDS011;3098;42.678;23.364;2022-08-21T02:53:02;40.35;;;16.08;;
6133;SDS011;3098;42.678;23.364;2022-08-21T02:55:32;34.13;;;16.38;;
6133;SDS011;3098;42.678;23.364;2022-08-21T02:58:01;36.55;;;15.82;;
6133;SDS011;3098;42.678;23.364;2022-08-21T03:00:29;35.00;;;15.80;;
6133;SDS011;3098;42.678;23.364;2022-08-21T03:02:59;30.23;;;14.77;;
6133;SDS011;3098;42.678;23.364;2022-08-21T03:05:26;31.83;;;14.57;;
6133;SDS011;3098;42.678;23.364;2022-08-21T03:07:57;27.70;;;13.77;;
6133;SDS011;3098;42.678;23.364;2022-08-21T03:10:24;29.98;;;12.90;;
6133;SDS011;3098;42.678;23.364;2022-08-21T03:12:52;22.67;;;11.23;;
6133;SDS011;3098;42.678;23.364;2022-08-21T03:15:20;27.08;;;11.25;;
6133;SDS011;3098;42.678;23.364;2022-08-21T03:17:48;24.65;;;11.38;;
6133;SDS011;3098;42.678;23.364;2022-08-21T03:20:19;25.13;;;11.98;;
6133;SDS011;3098;42.678;23.364;2022-08-21T03:22:48;21.13;;;10.00;;
6133;SDS011;3098;42.678;23.364;2022-08-21T03:25:16;18.52;;;9.48;;
6133;SDS011;3098;42.678;23.364;2022-08-21T03:27:44;19.25;;;9.63;;
6133;SDS011;3098;42.678;23.364;2022-08-21T03:30:12;16.52;;;9.18;;
6133;SDS011;3098;42.678;23.364;2022-08-21T03:32:39;21.08;;;10.50;;
6133;SDS011;3098;42.678;23.364;2022-08-21T03:35:07;22.85;;;9.43;;
6133;SDS011;3098;42.678;23.364;2022-08-21T03:37:36;24.45;;;11.43;;
6133;SDS011;3098;42.678;23.364;2022-08-21T03:40:03;21.83;;;10.95;;
6133;SDS011;3098;42.678;23.364;2022-08-21T03:42:30;35.67;;;15.27;;
6133;SDS011;3098;42.678;23.364;2022-08-21T03:44:57;24.48;;;12.90;;
6133;SDS011;3098;42.678;23.364;2022-08-21T03:47:24;27.33;;;11.20;;
6133;SDS011;3098;42.678;23.364;2022-08-21T03:49:51;25.65;;;11.98;;
6133;SDS011;3098;42.678;23.364;2022-08-21T03:52:19;23.48;;;11.73;;
6133;SDS011;3098;42.678;23.364;2022-08-21T03:54:47;26.88;;;12.48;;
6133;SDS011;3098;42.678;23.364;2022-08-21T03:57:15;22.52;;;10.95;;
6133;SDS011;3098;42.678;23.364;2022-08-21T03:59:43;19.70;;;9.77;;
6133;SDS011;3098;42.678;23.364;2022-08-21T04:02:11;20.02;;;9.68;;
6133;SDS011;3098;42.678;23.364;2022-08-21T04:04:43;20.38;;;11.23;;
6133;SDS011;3098;42.678;23.364;2022-08-21T04:07:10;22.52;;;9.98;;
6133;SDS011;3098;42.678;23.364;2022-08-21T04:09:37;22.50;;;11.55;;
6133;SDS011;3098;42.678;23.364;2022-08-21T04:12:06;21.52;;;10.45;;
6133;SDS011;3098;42.678;23.364;2022-08-21T04:14:33;20.52;;;10.73;;
6133;SDS011;3098;42.678;23.364;2022-08-21T04:17:00;18.98;;;10.68;;
6133;SDS011;3098;42.678;23.364;2022-08-21T04:19:27;19.60;;;11.20;;
6133;SDS011;3098;42.678;23.364;2022-08-21T04:21:54;22.77;;;10.07;;
6133;SDS011;3098;42.678;23.364;2022-08-21T04:24:21;26.75;;;13.32;;
6133;SDS011;3098;42.678;23.364;2022-08-21T04:26:48;23.45;;;13.82;;
6133;SDS011;3098;42.678;23.364;2022-08-21T04:29:16;18.88;;;11.73;;
6133;SDS011;3098;42.678;23.364;2022-08-21T04:31:44;20.98;;;12.27;;
6133;SDS011;3098;42.678;23.364;2022-08-21T04:34:11;24.65;;;11.63;;
6133;SDS011;3098;42.678;23.364;2022-08-21T04:36:38;19.90;;;11.55;;
6133;SDS011;3098;42.678;23.364;2022-08-21T04:39:05;29.10;;;12.10;;
6133;SDS011;3098;42.678;23.364;2022-08-21T04:41:32;25.52;;;12.45;;
6133;SDS011;3098;42.678;23.364;2022-08-21T04:43:59;23.33;;;12.25;;
6133;SDS011;3098;42.678;23.364;2022-08-21T04:46:27;25.25;;;12.07;;
6133;SDS011;3098;42.678;23.364;2022-08-21T04:48:54;26.85;;;13.52;;
6133;SDS011;3098;42.678;23.364;2022-08-21T04:51:23;29.77;;;13.45;;
6133;SDS011;3098;42.678;23.364;2022-08-21T04:53:52;27.23;;;14.13;;
6133;SDS011;3098;42.678;23.364;2022-08-21T04:56:23;26.00;;;13.23;;
6133;SDS011;3098;42.678;23.364;2022-08-21T04:58:55;24.38;;;13.40;;
6133;SDS011;3098;42.678;23.364;2022-08-21T05:01:25;24.05;;;13.30;;
6133;SDS011;3098;42.678;23.364;2022-08-21T05:03:58;22.67;;;13.05;;
6133;SDS011;3098;42.678;23.364;2022-08-21T05:06:27;28.30;;;13.30;;
6133;SDS011;3098;42.678;23.364;2022-08-21T05:08:57;29.38;;;12.98;;
6133;SDS011;3098;42.678;23.364;2022-08-21T05:11:25;18.52;;;10.77;;
6133;SDS011;3098;42.678;23.364;2022-08-21T05:13:52;20.92;;;12.57;;
6133;SDS011;3098;42.678;23.364;2022-08-21T05:16:19;32.42;;;16.02;;
6133;SDS011;3098;42.678;23.364;2022-08-21T05:18:48;26.40;;;11.63;;
6133;SDS011;3098;42.678;23.364;2022-08-21T05:21:15;18.60;;;11.30;;
6133;SDS011;3098;42.678;23.364;2022-08-21T05:23:42;20.33;;;9.55;;
6133;SDS011;3098;42.678;23.364;2022-08-21T05:26:09;17.98;;;10.98;;
6133;SDS011;3098;42.678;23.364;2022-08-21T05:28:35;15.85;;;9.40;;
6133;SDS011;3098;42.678;23.364;2022-08-21T05:31:02;20.50;;;10.48;;
6133;SDS011;3098;42.678;23.364;2022-08-21T05:33:30;21.55;;;9.57;;
6133;SDS011;3098;42.678;23.364;2022-08-21T05:35:58;17.02;;;8.93;;
6133;SDS011;3098;42.678;23.364;2022-08-21T05:38:26;19.73;;;9.75;;
6133;SDS011;3098;42.678;23.364;2022-08-21T05:40:53;12.73;;;7.55;;
6133;SDS011;3098;42.678;23.364;2022-08-21T05:43:21;19.75;;;8.93;;
6133;SDS011;3098;42.678;23.364;2022-08-21T05:45:48;13.43;;;7.18;;
6133;SDS011;3098;42.678;23.364;2022-08-21T05:48:15;13.63;;;8.20;;
6133;SDS011;3098;42.678;23.364;2022-08-21T05:50:44;18.83;;;11.23;;
6133;SDS011;3098;42.678;23.364;2022-08-21T05:53:14;20.40;;;10.07;;
6133;SDS011;3098;42.678;23.364;2022-08-21T05:55:41;19.05;;;10.35;;
6133;SDS011;3098;42.678;23.364;2022-08-21T05:58:09;16.08;;;10.13;;
6133;SDS011;3098;42.678;23.364;2022-08-21T06:00:36;14.25;;;9.50;;
6133;SDS011;3098;42.678;23.364;2022-08-21T06:03:04;21.95;;;10.40;;
6133;SDS011;3098;42.678;23.364;2022-08-21T06:05:37;22.92;;;10.88;;
6133;SDS011;3098;42.678;23.364;2022-08-21T06:08:04;16.00;;;9.50;;
6133;SDS011;3098;42.678;23.364;2022-08-21T06:10:32;20.80;;;10.77;;
6133;SDS011;3098;42.678;23.364;2022-08-21T06:13:00;16.42;;;10.35;;
6133;SDS011;3098;42.678;23.364;2022-08-21T06:15:27;21.55;;;10.88;;
6133;SDS011;3098;42.678;23.364;2022-08-21T06:17:54;20.38;;;10.75;;
6133;SDS011;3098;42.678;23.364;2022-08-21T06:20:22;17.05;;;10.65;;
6133;SDS011;3098;42.678;23.364;2022-08-21T06:22:49;19.58;;;10.68;;
6133;SDS011;3098;42.678;23.364;2022-08-21T06:25:16;19.23;;;10.55;;
6133;SDS011;3098;42.678;23.364;2022-08-21T06:27:44;14.38;;;9.70;;
6133;SDS011;3098;42.678;23.364;2022-08-21T06:30:12;17.02;;;11.77;;
6133;SDS011;3098;42.678;23.364;2022-08-21T06:32:40;21.38;;;11.07;;
6133;SDS011;3098;42.678;23.364;2022-08-21T06:35:07;16.27;;;8.60;;
6133;SDS011;3098;42.678;23.364;2022-08-21T06:37:34;17.30;;;9.07;;
6133;SDS011;3098;42.678;23.364;2022-08-21T06:40:02;44.15;;;27.92;;
6133;SDS011;3098;42.678;23.364;2022-08-21T06:42:30;12.70;;;8.10;;
6133;SDS011;3098;42.678;23.364;2022-08-21T06:44:58;16.15;;;7.72;;
6133;SDS011;3098;42.678;23.364;2022-08-21T06:47:25;15.25;;;8.60;;
6133;SDS011;3098;42.678;23.364;2022-08-21T06:49:52;15.95;;;8.35;;
6133;SDS011;3098;42.678;23.364;2022-08-21T06:52:19;14.43;;;7.13;;
6133;SDS011;3098;42.678;23.364;2022-08-21T06:54:46;15.52;;;8.27;;
6133;SDS011;3098;42.678;23.364;2022-08-21T06:57:13;15.88;;;6.43;;
6133;SDS011;3098;42.678;23.364;2022-08-21T06:59:40;9.95;;;6.60;;
6133;SDS011;3098;42.678;23.364;2022-08-21T07:02:08;9.77;;;6.45;;
6133;SDS011;3098;42.678;23.364;2022-08-21T07:04:35;13.73;;;7.47;;
6133;SDS011;3098;42.678;23.364;2022-08-21T07:07:02;17.05;;;7.53;;
6133;SDS011;3098;42.678;23.364;2022-08-21T07:09:29;11.98;;;6.55;;
6133;SDS011;3098;42.678;23.364;2022-08-21T07:11:56;12.50;;;6.30;;
6133;SDS011;3098;42.678;23.364;2022-08-21T07:14:23;15.85;;;6.22;;
6133;SDS011;3098;42.678;23.364;2022-08-21T07:16:50;11.85;;;6.22;;
6133;SDS011;3098;42.678;23.364;2022-08-21T07:19:19;12.65;;;6.28;;
6133;SDS011;3098;42.678;23.364;2022-08-21T07:21:46;12.32;;;6.18;;
6133;SDS011;3098;42.678;23.364;2022-08-21T07:24:13;12.43;;;6.78;;
6133;SDS011;3098;42.678;23.364;2022-08-21T07:26:40;15.35;;;6.03;;
6133;SDS011;3098;42.678;23.364;2022-08-21T07:29:07;10.93;;;5.50;;
6133;SDS011;3098;42.678;23.364;2022-08-21T07:31:35;12.98;;;6.00;;
6133;SDS011;3098;42.678;23.364;2022-08-21T07:34:03;11.20;;;7.45;;
6133;SDS011;3098;42.678;23.364;2022-08-21T07:36:31;17.38;;;7.97;;
6133;SDS011;3098;42.678;23.364;2022-08-21T07:38:59;11.07;;;7.03;;
6133;SDS011;3098;42.678;23.364;2022-08-21T07:41:26;20.98;;;10.45;;
6133;SDS011;3098;42.678;23.364;2022-08-21T07:43:57;13.30;;;7.25;;
6133;SDS011;3098;42.678;23.364;2022-08-21T07:46:24;12.93;;;7.07;;
6133;SDS011;3098;42.678;23.364;2022-08-21T07:48:53;14.25;;;7.40;;
6133;SDS011;3098;42.678;23.364;2022-08-21T07:51:21;14.70;;;7.22;;
6133;SDS011;3098;42.678;23.364;2022-08-21T07:53:54;14.20;;;6.40;;
6133;SDS011;3098;42.678;23.364;2022-08-21T07:56:23;14.25;;;7.30;;
6133;SDS011;3098;42.678;23.364;2022-08-21T07:58:50;15.60;;;7.15;;
6133;SDS011;3098;42.678;23.364;2022-08-21T08:01:17;15.85;;;7.03;;
6133;SDS011;3098;42.678;23.364;2022-08-21T08:03:44;15.57;;;7.60;;
6133;SDS011;3098;42.678;23.364;2022-08-21T08:06:21;13.90;;;8.20;;
6133;SDS011;3098;42.678;23.364;2022-08-21T08:08:51;13.90;;;8.23;;
6133;SDS011;3098;42.678;23.364;2022-08-21T08:11:19;11.75;;;8.32;;
6133;SDS011;3098;42.678;23.364;2022-08-21T08:13:47;18.20;;;8.45;;
6133;SDS011;3098;42.678;23.364;2022-08-21T08:16:16;20.42;;;9.73;;
6133;SDS011;3098;42.678;23.364;2022-08-21T08:18:45;17.58;;;8.40;;
6133;SDS011;3098;42.678;23.364;2022-08-21T08:21:12;18.60;;;9.23;;
6133;SDS011;3098;42.678;23.364;2022-08-21T08:23:39;18.95;;;8.50;;
6133;SDS011;3098;42.678;23.364;2022-08-21T08:26:08;18.90;;;9.48;;
6133;SDS011;3098;42.678;23.364;2022-08-21T08:28:36;23.35;;;9.75;;
6133;SDS011;3098;42.678;23.364;2022-08-21T08:31:04;13.43;;;9.30;;
6133;SDS011;3098;42.678;23.364;2022-08-21T08:33:31;17.10;;;9.20;;
6133;SDS011;3098;42.678;23.364;2022-08-21T08:35:58;15.45;;;9.10;;
6133;SDS011;3098;42.678;23.364;2022-08-21T08:38:25;14.80;;;9.70;;
6133;SDS011;3098;42.678;23.364;2022-08-21T08:40:54;17.33;;;9.45;;
6133;SDS011;3098;42.678;23.364;2022-08-21T08:43:28;21.40;;;9.23;;
6133;SDS011;3098;42.678;23.364;2022-08-21T08:45:59;18.67;;;11.02;;
6133;SDS011;3098;42.678;23.364;2022-08-21T08:48:36;20.30;;;10.00;;
6133;SDS011;3098;42.678;23.364;2022-08-21T08:51:13;20.85;;;9.43;;
6133;SDS011;3098;42.678;23.364;2022-08-21T08:53:46;16.98;;;10.80;;
6133;SDS011;3098;42.678;23.364;2022-08-21T08:56:22;16.40;;;10.27;;
6133;SDS011;3098;42.678;23.364;2022-08-21T08:58:55;21.05;;;11.27;;
6133;SDS011;3098;42.678;23.364;2022-08-21T09:01:27;18.33;;;8.00;;
6133;SDS011;3098;42.678;23.364;2022-08-21T09:03:55;13.38;;;8.00;;
6133;SDS011;3098;42.678;23.364;2022-08-21T09:06:30;23.10;;;12.68;;
6133;SDS011;3098;42.678;23.364;2022-08-21T09:09:11;11.55;;;7.13;;
6133;SDS011;3098;42.678;23.364;2022-08-21T09:11:51;17.10;;;8.95;;
6133;SDS011;3098;42.678;23.364;2022-08-21T09:14:26;12.90;;;7.45;;
6133;SDS011;3098;42.678;23.364;2022-08-21T09:17:09;11.82;;;6.88;;
6133;SDS011;3098;42.678;23.364;2022-08-21T09:19:51;14.98;;;8.43;;
6133;SDS011;3098;42.678;23.364;2022-08-21T09:22:30;14.23;;;7.35;;
6133;SDS011;3098;42.678;23.364;2022-08-21T09:25:07;20.40;;;8.35;;
6133;SDS011;3098;42.678;23.364;2022-08-21T09:27:38;15.85;;;6.93;;
6133;SDS011;3098;42.678;23.364;2022-08-21T09:30:09;14.52;;;7.07;;
6133;SDS011;3098;42.678;23.364;2022-08-21T09:32:37;12.27;;;7.47;;
6133;SDS011;3098;42.678;23.364;2022-08-21T09:35:07;15.48;;;7.75;;
6133;SDS011;3098;42.678;23.364;2022-08-21T09:37:45;16.48;;;7.03;;
6133;SDS011;3098;42.678;23.364;2022-08-21T09:40:26;15.95;;;8.25;;
6133;SDS011;3098;42.678;23.364;2022-08-21T09:43:00;20.10;;;7.75;;
6133;SDS011;3098;42.678;23.364;2022-08-21T09:45:31;20.65;;;7.93;;
6133;SDS011;3098;42.678;23.364;2022-08-21T09:48:12;18.02;;;7.50;;
6133;SDS011;3098;42.678;23.364;2022-08-21T09:50:42;11.20;;;6.70;;
6133;SDS011;3098;42.678;23.364;2022-08-21T09:53:17;11.30;;;5.65;;
6133;SDS011;3098;42.678;23.364;2022-08-21T09:55:48;10.32;;;5.82;;
6133;SDS011;3098;42.678;23.364;2022-08-21T09:58:35;14.88;;;6.97;;
6133;SDS011;3098;42.678;23.364;2022-08-21T10:01:06;14.57;;;7.40;;
6133;SDS011;3098;42.678;23.364;2022-08-21T10:03:39;12.32;;;6.75;;
6133;SDS011;3098;42.678;23.364;2022-08-21T10:06:07;11.38;;;6.10;;
6133;SDS011;3098;42.678;23.364;2022-08-21T10:08:36;21.08;;;8.60;;
6133;SDS011;3098;42.678;23.364;2022-08-21T10:11:06;12.63;;;6.93;;
6133;SDS011;3098;42.678;23.364;2022-08-21T10:13:43;13.20;;;7.18;;
6133;SDS011;3098;42.678;23.364;2022-08-21T10:16:24;14.48;;;6.78;;
6133;SDS011;3098;42.678;23.364;2022-08-21T10:19:01;12.77;;;7.35;;
6133;SDS011;3098;42.678;23.364;2022-08-21T10:21:38;14.13;;;6.95;;
6133;SDS011;3098;42.678;23.364;2022-08-21T10:24:13;11.65;;;7.30;;
6133;SDS011;3098;42.678;23.364;2022-08-21T10:26:51;13.77;;;6.97;;
6133;SDS011;3098;42.678;23.364;2022-08-21T10:29:32;12.90;;;6.68;;
6133;SDS011;3098;42.678;23.364;2022-08-21T10:32:12;10.55;;;6.05;;
6133;SDS011;3098;42.678;23.364;2022-08-21T10:34:55;19.08;;;6.95;;
6133;SDS011;3098;42.678;23.364;2022-08-21T10:37:31;14.45;;;6.22;;
6133;SDS011;3098;42.678;23.364;2022-08-21T10:40:10;13.38;;;6.10;;
6133;SDS011;3098;42.678;23.364;2022-08-21T10:42:48;13.90;;;7.18;;
6133;SDS011;3098;42.678;23.364;2022-08-21T10:45:22;12.32;;;6.80;;
6133;SDS011;3098;42.678;23.364;2022-08-21T10:48:01;15.77;;;6.40;;
6133;SDS011;3098;42.678;23.364;2022-08-21T10:50:34;10.25;;;6.05;;
6133;SDS011;3098;42.678;23.364;2022-08-21T10:53:14;11.07;;;6.22;;
6133;SDS011;3098;42.678;23.364;2022-08-21T10:55:48;12.15;;;6.55;;
6133;SDS011;3098;42.678;23.364;2022-08-21T10:58:23;11.13;;;5.90;;
6133;SDS011;3098;42.678;23.364;2022-08-21T11:00:55;12.95;;;5.88;;
6133;SDS011;3098;42.678;23.364;2022-08-21T11:03:31;13.88;;;6.15;;
6133;SDS011;3098;42.678;23.364;2022-08-21T11:06:05;11.10;;;6.68;;
6133;SDS011;3098;42.678;23.364;2022-08-21T11:08:38;10.82;;;6.10;;
6133;SDS011;3098;42.678;23.364;2022-08-21T11:11:08;12.43;;;5.97;;
6133;SDS011;3098;42.678;23.364;2022-08-21T11:13:40;11.02;;;5.55;;
6133;SDS011;3098;42.678;23.364;2022-08-21T11:16:13;12.82;;;5.65;;
6133;SDS011;3098;42.678;23.364;2022-08-21T11:18:51;9.15;;;5.07;;
6133;SDS011;3098;42.678;23.364;2022-08-21T11:21:28;13.00;;;5.57;;
6133;SDS011;3098;42.678;23.364;2022-08-21T11:24:09;9.32;;;4.95;;
6133;SDS011;3098;42.678;23.364;2022-08-21T11:26:49;8.35;;;5.35;;
6133;SDS011;3098;42.678;23.364;2022-08-21T11:29:22;9.75;;;4.80;;
6133;SDS011;3098;42.678;23.364;2022-08-21T11:31:58;10.13;;;5.55;;
6133;SDS011;3098;42.678;23.364;2022-08-21T11:34:45;13.48;;;5.30;;
6133;SDS011;3098;42.678;23.364;2022-08-21T11:37:23;11.10;;;5.20;;
6133;SDS011;3098;42.678;23.364;2022-08-21T11:40:00;19.38;;;5.50;;
6133;SDS011;3098;42.678;23.364;2022-08-21T11:42:41;12.45;;;5.40;;
6133;SDS011;3098;42.678;23.364;2022-08-21T11:45:22;9.88;;;5.55;;
6133;SDS011;3098;42.678;23.364;2022-08-21T11:47:59;6.05;;;4.50;;
6133;SDS011;3098;42.678;23.364;2022-08-21T11:50:35;12.52;;;4.95;;
6133;SDS011;3098;42.678;23.364;2022-08-21T11:53:08;8.32;;;4.90;;
6133;SDS011;3098;42.678;23.364;2022-08-21T11:55:41;6.25;;;4.78;;
6133;SDS011;3098;42.678;23.364;2022-08-21T11:58:16;11.25;;;5.93;;
6133;SDS011;3098;42.678;23.364;2022-08-21T12:00:49;9.25;;;6.18;;
6133;SDS011;3098;42.678;23.364;2022-08-21T12:03:23;9.85;;;5.43;;
6133;SDS011;3098;42.678;23.364;2022-08-21T12:05:55;13.65;;;6.10;;
6133;SDS011;3098;42.678;23.364;2022-08-21T12:08:27;10.07;;;5.85;;
6133;SDS011;3098;42.678;23.364;2022-08-21T12:11:00;7.95;;;5.45;;
6133;SDS011;3098;42.678;23.364;2022-08-21T12:13:31;8.88;;;5.63;;
6133;SDS011;3098;42.678;23.364;2022-08-21T12:16:05;12.85;;;6.40;;
6133;SDS011;3098;42.678;23.364;2022-08-21T12:18:33;12.25;;;5.65;;
6133;SDS011;3098;42.678;23.364;2022-08-21T12:21:15;12.32;;;5.85;;
6133;SDS011;3098;42.678;23.364;2022-08-21T12:23:46;11.32;;;6.50;;
6133;SDS011;3098;42.678;23.364;2022-08-21T12:26:25;10.65;;;5.80;;
6133;SDS011;3098;42.678;23.364;2022-08-21T12:29:05;12.05;;;5.88;;
6133;SDS011;3098;42.678;23.364;2022-08-21T12:31:46;10.80;;;5.55;;
6133;SDS011;3098;42.678;23.364;2022-08-21T12:34:18;10.43;;;5.32;;
6133;SDS011;3098;42.678;23.364;2022-08-21T12:36:54;10.77;;;5.85;;
6133;SDS011;3098;42.678;23.364;2022-08-21T12:39:25;12.73;;;5.97;;
6133;SDS011;3098;42.678;23.364;2022-08-21T12:41:57;42.38;;;7.43;;
6133;SDS011;3098;42.678;23.364;2022-08-21T12:44:31;12.57;;;6.50;;
6133;SDS011;3098;42.678;23.364;2022-08-21T12:47:05;10.45;;;5.47;;
6133;SDS011;3098;42.678;23.364;2022-08-21T12:49:43;11.98;;;6.18;;
6133;SDS011;3098;42.678;23.364;2022-08-21T12:52:21;9.25;;;5.78;;
6133;SDS011;3098;42.678;23.364;2022-08-21T12:54:51;8.07;;;5.55;;
6133;SDS011;3098;42.678;23.364;2022-08-21T12:57:19;9.65;;;6.03;;
6133;SDS011;3098;42.678;23.364;2022-08-21T12:59:52;9.27;;;5.60;;
6133;SDS011;3098;42.678;23.364;2022-08-21T13:02:22;10.93;;;6.07;;
6133;SDS011;3098;42.678;23.364;2022-08-21T13:04:53;13.90;;;5.43;;
6133;SDS011;3098;42.678;23.364;2022-08-21T13:07:24;8.07;;;5.07;;
6133;SDS011;3098;42.678;23.364;2022-08-21T13:09:55;13.65;;;5.63;;
6133;SDS011;3098;42.678;23.364;2022-08-21T13:12:27;9.65;;;5.82;;
6133;SDS011;3098;42.678;23.364;2022-08-21T13:14:56;11.57;;;5.47;;
6133;SDS011;3098;42.678;23.364;2022-08-21T13:17:25;11.88;;;6.18;;
6133;SDS011;3098;42.678;23.364;2022-08-21T13:19:57;12.65;;;5.00;;
6133;SDS011;3098;42.678;23.364;2022-08-21T13:22:28;7.38;;;4.88;;
6133;SDS011;3098;42.678;23.364;2022-08-21T13:24:55;13.48;;;5.35;;
6133;SDS011;3098;42.678;23.364;2022-08-21T13:27:25;8.07;;;4.97;;
6133;SDS011;3098;42.678;23.364;2022-08-21T13:30:06;12.02;;;5.85;;
6133;SDS011;3098;42.678;23.364;2022-08-21T13:32:37;8.77;;;4.78;;
6133;SDS011;3098;42.678;23.364;2022-08-21T13:35:07;8.20;;;4.93;;
6133;SDS011;3098;42.678;23.364;2022-08-21T13:37:39;9.05;;;4.75;;
6133;SDS011;3098;42.678;23.364;2022-08-21T13:40:09;9.88;;;5.28;;
6133;SDS011;3098;42.678;23.364;2022-08-21T13:42:40;7.78;;;5.28;;
6133;SDS011;3098;42.678;23.364;2022-08-21T13:45:22;13.63;;;6.13;;
6133;SDS011;3098;42.678;23.364;2022-08-21T13:47:52;11.45;;;5.18;;
6133;SDS011;3098;42.678;23.364;2022-08-21T13:50:20;12.45;;;5.65;;
6133;SDS011;3098;42.678;23.364;2022-08-21T13:52:55;12.45;;;5.85;;
6133;SDS011;3098;42.678;23.364;2022-08-21T13:55:25;9.23;;;5.65;;
6133;SDS011;3098;42.678;23.364;2022-08-21T13:58:02;8.77;;;5.50;;
6133;SDS011;3098;42.678;23.364;2022-08-21T14:00:31;10.55;;;5.60;;
6133;SDS011;3098;42.678;23.364;2022-08-21T14:03:04;9.13;;;5.15;;
6133;SDS011;3098;42.678;23.364;2022-08-21T14:05:34;7.22;;;5.20;;
6133;SDS011;3098;42.678;23.364;2022-08-21T14:08:07;11.70;;;5.88;;
6133;SDS011;3098;42.678;23.364;2022-08-21T14:10:41;16.67;;;5.70;;
6133;SDS011;3098;42.678;23.364;2022-08-21T14:13:20;11.43;;;5.75;;
6133;SDS011;3098;42.678;23.364;2022-08-21T14:15:58;12.52;;;5.75;;
6133;SDS011;3098;42.678;23.364;2022-08-21T14:18:26;10.55;;;5.28;;
6133;SDS011;3098;42.678;23.364;2022-08-21T14:21:03;9.85;;;5.75;;
6133;SDS011;3098;42.678;23.364;2022-08-21T14:23:33;10.32;;;5.90;;
6133;SDS011;3098;42.678;23.364;2022-08-21T14:26:01;10.57;;;5.40;;
6133;SDS011;3098;42.678;23.364;2022-08-21T14:28:31;15.95;;;5.90;;
6133;SDS011;3098;42.678;23.364;2022-08-21T14:31:11;12.55;;;5.90;;
6133;SDS011;3098;42.678;23.364;2022-08-21T14:33:40;13.32;;;6.43;;
6133;SDS011;3098;42.678;23.364;2022-08-21T14:36:07;10.13;;;5.65;;
6133;SDS011;3098;42.678;23.364;2022-08-21T14:38:36;8.60;;;5.90;;
6133;SDS011;3098;42.678;23.364;2022-08-21T14:41:07;17.63;;;6.78;;
6133;SDS011;3098;42.678;23.364;2022-08-21T14:43:40;13.63;;;6.00;;
6133;SDS011;3098;42.678;23.364;2022-08-21T14:46:08;13.85;;;6.57;;
6133;SDS011;3098;42.678;23.364;2022-08-21T14:48:35;12.70;;;6.47;;
6133;SDS011;3098;42.678;23.364;2022-08-21T14:51:03;8.45;;;5.68;;
6133;SDS011;3098;42.678;23.364;2022-08-21T14:53:30;11.88;;;6.18;;
6133;SDS011;3098;42.678;23.364;2022-08-21T14:55:58;11.88;;;5.75;;
6133;SDS011;3098;42.678;23.364;2022-08-21T14:58:32;8.25;;;5.75;;
6133;SDS011;3098;42.678;23.364;2022-08-21T15:01:01;14.23;;;6.95;;